createdAt,value
2016-08-22T00:00:33.690Z,16.96
2016-08-22T00:01:34.390Z,16.93
2016-08-22T00:02:34.385Z,16.93
2016-08-22T00:03:34.369Z,16.92
2016-08-22T00:04:33.656Z,16.93
2016-08-22T00:05:33.650Z,17
2016-08-22T00:06:34.352Z,16.95
2016-08-22T00:07:33.624Z,16.99
2016-08-22T00:08:34.327Z,16.95
2016-08-22T00:09:33.609Z,16.93
2016-08-22T00:10:34.304Z,16.98
2016-08-22T00:11:33.592Z,16.93
2016-08-22T00:12:34.992Z,16.93
2016-08-22T00:13:34.273Z,16.93
2016-08-22T00:14:34.268Z,16.95
2016-08-22T00:15:33.549Z,16.89
2016-08-22T00:16:33.541Z,16.86
2016-08-22T00:17:33.550Z,16.9
2016-08-22T00:18:33.529Z,16.85
2016-08-22T00:19:34.228Z,16.83
2016-08-22T00:20:33.503Z,16.9
2016-08-22T00:21:34.201Z,16.86
2016-08-22T00:22:34.246Z,16.88
2016-08-22T00:23:33.493Z,16.85
2016-08-22T00:24:34.177Z,16.88
2016-08-22T00:25:33.455Z,16.88
2016-08-22T00:26:33.451Z,16.81
2016-08-22T00:27:34.847Z,16.86
2016-08-22T00:28:34.138Z,16.77
2016-08-22T00:29:33.420Z,16.77
2016-08-22T00:30:34.114Z,16.68
2016-08-22T00:31:33.399Z,16.65
2016-08-22T00:32:34.812Z,16.85
2016-08-22T00:33:33.382Z,16.71
2016-08-22T00:34:33.370Z,16.74
2016-08-22T00:35:33.361Z,16.71
2016-08-22T00:36:33.351Z,16.68
2016-08-22T00:37:33.349Z,16.59
2016-08-22T00:38:34.065Z,16.63
2016-08-22T00:39:34.031Z,16.6
2016-08-22T00:40:33.317Z,16.58
2016-08-22T00:41:33.308Z,16.55
2016-08-22T00:42:34.712Z,16.58
2016-08-22T00:43:33.290Z,16.45
2016-08-22T00:44:33.279Z,16.48
2016-08-22T00:45:33.986Z,16.53
2016-08-22T00:46:33.258Z,16.5
2016-08-22T00:47:33.963Z,16.45
2016-08-22T00:48:33.951Z,16.45
2016-08-22T00:49:33.230Z,16.45
2016-08-22T00:50:34.640Z,16.45
2016-08-22T00:51:34.629Z,16.41
2016-08-22T00:52:33.910Z,16.53
2016-08-22T00:53:33.897Z,16.42
2016-08-22T00:54:33.181Z,16.52
2016-08-22T00:55:33.881Z,16.5
2016-08-22T00:56:33.868Z,16.53
2016-08-22T00:57:33.152Z,16.49
2016-08-22T00:58:33.146Z,16.49
2016-08-22T00:59:33.840Z,16.44
2016-08-22T01:00:33.834Z,16.41
2016-08-22T01:01:33.823Z,16.48
2016-08-22T01:02:33.105Z,16.35
2016-08-22T01:03:33.097Z,16.34
2016-08-22T01:04:33.089Z,16.37
2016-08-22T01:05:33.787Z,16.37
2016-08-22T01:06:33.775Z,16.38
2016-08-22T01:07:33.067Z,16.33
2016-08-22T01:08:33.755Z,16.37
2016-08-22T01:09:33.047Z,16.34
2016-08-22T01:10:33.741Z,16.33
2016-08-22T01:11:33.777Z,16.27
2016-08-22T01:12:33.717Z,16.34
2016-08-22T01:13:33.703Z,16.31
2016-08-22T01:14:33.699Z,16.25
2016-08-22T01:15:33.689Z,16.23
2016-08-22T01:16:32.970Z,16.3
2016-08-22T01:17:33.673Z,16.3
2016-08-22T01:18:32.946Z,16.26
2016-08-22T01:19:32.941Z,16.3
2016-08-22T01:20:32.936Z,16.2
2016-08-22T01:21:32.921Z,16.23
2016-08-22T01:22:33.622Z,16.18
2016-08-22T01:23:32.903Z,16.18
2016-08-22T01:24:32.893Z,16.2
2016-08-22T01:25:33.590Z,16.15
2016-08-22T01:26:33.587Z,16.18
2016-08-22T01:27:32.864Z,16.18
2016-08-22T01:28:32.855Z,16.16
2016-08-22T01:29:33.554Z,16.07
2016-08-22T01:30:32.832Z,16.14
2016-08-22T01:31:34.236Z,16.14
2016-08-22T01:32:32.813Z,16.16
2016-08-22T01:33:33.516Z,16.12
2016-08-22T01:34:33.509Z,16.14
2016-08-22T01:35:33.497Z,16.09
2016-08-22T01:36:32.773Z,16.16
2016-08-22T01:37:33.472Z,16.15
2016-08-22T01:38:33.464Z,16.16
2016-08-22T01:39:33.458Z,16.12
2016-08-22T01:40:33.447Z,16.15
2016-08-22T01:41:32.728Z,16.09
2016-08-22T01:42:32.717Z,16.09
2016-08-22T01:43:32.705Z,16.06
2016-08-22T01:44:33.398Z,16.07
2016-08-22T01:45:33.398Z,16.06
2016-08-22T01:46:34.092Z,16.04
2016-08-22T01:47:33.392Z,16.03
2016-08-22T01:48:33.373Z,15.94
2016-08-22T01:49:32.647Z,15.93
2016-08-22T01:50:32.840Z,16.01
2016-08-22T01:51:33.344Z,16.09
2016-08-22T01:52:32.625Z,15.97
2016-08-22T01:53:34.020Z,15.97
2016-08-22T01:54:32.613Z,15.97
2016-08-22T01:55:33.344Z,15.94
2016-08-22T01:56:33.287Z,15.97
2016-08-22T01:57:32.573Z,15.92
2016-08-22T01:58:33.270Z,15.92
2016-08-22T01:59:33.263Z,15.94
2016-08-22T02:00:33.249Z,15.89
2016-08-22T02:01:32.526Z,15.92
2016-08-22T02:02:32.520Z,15.82
2016-08-22T02:03:33.219Z,15.86
2016-08-22T02:04:32.504Z,15.81
2016-08-22T02:05:33.255Z,15.81
2016-08-22T02:06:33.247Z,15.79
2016-08-22T02:07:33.181Z,15.78
2016-08-22T02:08:32.466Z,15.79
2016-08-22T02:09:33.212Z,15.72
2016-08-22T02:10:33.147Z,15.81
2016-08-22T02:11:32.448Z,15.84
2016-08-22T02:12:33.842Z,15.79
2016-08-22T02:13:32.413Z,15.66
2016-08-22T02:14:33.115Z,15.72
2016-08-22T02:15:32.391Z,15.72
2016-08-22T02:16:32.380Z,15.74
2016-08-22T02:17:33.085Z,15.7
2016-08-22T02:18:32.364Z,15.75
2016-08-22T02:19:32.352Z,15.7
2016-08-22T02:20:33.762Z,15.68
2016-08-22T02:21:32.331Z,15.68
2016-08-22T02:22:32.325Z,15.72
2016-08-22T02:23:33.019Z,15.74
2016-08-22T02:24:33.007Z,15.72
2016-08-22T02:25:33.711Z,15.74
2016-08-22T02:26:32.284Z,15.74
2016-08-22T02:27:32.993Z,15.76
2016-08-22T02:28:32.261Z,15.74
2016-08-22T02:29:32.251Z,15.75
2016-08-22T02:30:32.267Z,15.79
2016-08-22T02:31:32.942Z,15.68
2016-08-22T02:32:32.926Z,15.7
2016-08-22T02:33:32.946Z,15.72
2016-08-22T02:34:32.208Z,15.74
2016-08-22T02:35:32.193Z,15.75
2016-08-22T02:36:32.182Z,15.67
2016-08-22T02:37:32.172Z,15.68
2016-08-22T02:38:32.162Z,15.76
2016-08-22T02:39:32.861Z,15.72
2016-08-22T02:40:33.562Z,15.72
2016-08-22T02:41:32.128Z,15.72
2016-08-22T02:42:33.558Z,15.63
2016-08-22T02:43:32.112Z,15.66
2016-08-22T02:44:32.110Z,15.72
2016-08-22T02:45:32.094Z,15.63
2016-08-22T02:46:32.793Z,15.66
2016-08-22T02:47:32.070Z,15.66
2016-08-22T02:48:32.065Z,15.66
2016-08-22T02:49:32.776Z,15.64
2016-08-22T02:50:32.749Z,15.63
2016-08-22T02:51:32.038Z,15.67
2016-08-22T02:52:33.437Z,15.61
2016-08-22T02:53:32.011Z,15.64
2016-08-22T02:54:32.713Z,15.61
2016-08-22T02:55:32.699Z,15.59
2016-08-22T02:56:31.998Z,15.6
2016-08-22T02:57:32.681Z,15.6
2016-08-22T02:58:31.960Z,15.63
2016-08-22T02:59:33.382Z,15.57
2016-08-22T03:00:31.942Z,15.59
2016-08-22T03:01:32.638Z,15.66
2016-08-22T03:02:32.629Z,15.64
2016-08-22T03:03:31.911Z,15.54
2016-08-22T03:04:31.902Z,15.66
2016-08-22T03:05:33.304Z,15.61
2016-08-22T03:06:32.610Z,15.56
2016-08-22T03:07:32.589Z,15.56
2016-08-22T03:08:33.305Z,15.6
2016-08-22T03:09:32.588Z,15.54
2016-08-22T03:10:31.846Z,15.6
2016-08-22T03:11:32.541Z,15.57
2016-08-22T03:12:32.534Z,15.59
2016-08-22T03:13:32.522Z,15.52
2016-08-22T03:14:31.801Z,15.6
2016-08-22T03:15:32.536Z,15.54
2016-08-22T03:16:32.513Z,15.54
2016-08-22T03:17:31.768Z,15.56
2016-08-22T03:18:32.475Z,15.51
2016-08-22T03:19:32.470Z,15.54
2016-08-22T03:20:31.744Z,15.52
2016-08-22T03:21:33.152Z,15.56
2016-08-22T03:22:32.436Z,15.54
2016-08-22T03:23:31.724Z,15.52
2016-08-22T03:24:31.707Z,15.45
2016-08-22T03:25:31.699Z,15.57
2016-08-22T03:26:32.388Z,15.49
2016-08-22T03:27:31.673Z,15.57
2016-08-22T03:28:31.664Z,15.45
2016-08-22T03:29:31.657Z,15.56
2016-08-22T03:30:32.421Z,15.48
2016-08-22T03:31:31.633Z,15.49
2016-08-22T03:32:33.039Z,15.57
2016-08-22T03:33:31.614Z,15.46
2016-08-22T03:34:32.327Z,15.45
2016-08-22T03:35:32.308Z,15.56
2016-08-22T03:36:32.305Z,15.49
2016-08-22T03:37:31.569Z,15.49
2016-08-22T03:38:32.269Z,15.56
2016-08-22T03:39:32.260Z,15.57
2016-08-22T03:40:32.962Z,15.57
2016-08-22T03:41:32.241Z,15.52
2016-08-22T03:42:32.233Z,15.51
2016-08-22T03:43:32.221Z,15.41
2016-08-22T03:44:32.212Z,15.48
2016-08-22T03:45:32.198Z,15.49
2016-08-22T03:46:32.900Z,15.51
2016-08-22T03:47:32.181Z,15.48
2016-08-22T03:48:31.457Z,15.48
2016-08-22T03:49:32.161Z,15.43
2016-08-22T03:50:32.558Z,15.49
2016-08-22T03:51:31.431Z,15.51
2016-08-22T03:52:32.130Z,15.59
2016-08-22T03:53:31.414Z,15.41
2016-08-22T03:54:32.108Z,15.51
2016-08-22T03:55:32.116Z,15.49
2016-08-22T03:56:32.093Z,15.43
2016-08-22T03:57:32.075Z,15.48
2016-08-22T03:58:32.071Z,15.43
2016-08-22T03:59:31.350Z,15.45
2016-08-22T04:00:32.046Z,15.45
2016-08-22T04:01:32.037Z,15.39
2016-08-22T04:02:32.041Z,15.46
2016-08-22T04:03:31.307Z,15.48
2016-08-22T04:04:32.031Z,15.45
2016-08-22T04:05:32.719Z,15.35
2016-08-22T04:06:31.993Z,15.48
2016-08-22T04:07:31.983Z,15.31
2016-08-22T04:08:32.683Z,15.41
2016-08-22T04:09:31.965Z,15.39
2016-08-22T04:10:31.243Z,15.42
2016-08-22T04:11:31.237Z,15.38
2016-08-22T04:12:32.650Z,15.46
2016-08-22T04:13:31.206Z,15.48
2016-08-22T04:14:31.206Z,15.42
2016-08-22T04:15:31.894Z,15.42
2016-08-22T04:16:31.175Z,15.46
2016-08-22T04:17:31.171Z,15.49
2016-08-22T04:18:31.866Z,15.49
2016-08-22T04:19:31.854Z,15.43
2016-08-22T04:20:32.558Z,15.48
2016-08-22T04:21:31.837Z,15.48
2016-08-22T04:22:31.854Z,15.46
2016-08-22T04:23:31.124Z,15.46
2016-08-22T04:24:31.103Z,15.48
2016-08-22T04:25:31.800Z,15.42
2016-08-22T04:26:31.788Z,15.51
2016-08-22T04:27:31.783Z,15.59
2016-08-22T04:28:31.059Z,15.46
2016-08-22T04:29:31.047Z,15.52
2016-08-22T04:30:31.755Z,15.52
2016-08-22T04:31:31.057Z,15.52
2016-08-22T04:32:32.433Z,15.54
2016-08-22T04:33:31.715Z,15.61
2016-08-22T04:34:31.710Z,15.57
2016-08-22T04:35:30.990Z,15.56
2016-08-22T04:36:30.983Z,15.66
2016-08-22T04:37:31.681Z,15.54
2016-08-22T04:38:32.382Z,15.52
2016-08-22T04:39:31.664Z,15.52
2016-08-22T04:40:31.646Z,15.6
2016-08-22T04:41:31.643Z,15.6
2016-08-22T04:42:31.647Z,15.63
2016-08-22T04:43:31.624Z,15.66
2016-08-22T04:44:32.323Z,15.57
2016-08-22T04:45:30.902Z,15.6
2016-08-22T04:46:30.890Z,15.64
2016-08-22T04:47:32.281Z,15.64
2016-08-22T04:48:31.572Z,15.64
2016-08-22T04:49:31.563Z,15.67
2016-08-22T04:50:32.251Z,15.68
2016-08-22T04:51:32.249Z,15.7
2016-08-22T04:52:30.819Z,15.66
2016-08-22T04:53:31.534Z,15.67
2016-08-22T04:54:30.799Z,15.64
2016-08-22T04:55:31.498Z,15.66
2016-08-22T04:56:32.199Z,15.7
2016-08-22T04:57:31.486Z,15.63
2016-08-22T04:58:31.467Z,15.64
2016-08-22T04:59:31.457Z,15.67
2016-08-22T05:00:30.743Z,15.66
2016-08-22T05:01:32.181Z,15.63
2016-08-22T05:02:32.156Z,15.72
2016-08-22T05:03:31.425Z,15.78
2016-08-22T05:04:30.719Z,15.74
2016-08-22T05:05:30.691Z,15.76
2016-08-22T05:06:30.683Z,15.72
2016-08-22T05:07:31.379Z,15.74
2016-08-22T05:08:30.663Z,15.7
2016-08-22T05:09:31.353Z,15.72
2016-08-22T05:10:31.345Z,15.68
2016-08-22T05:11:31.342Z,15.72
2016-08-22T05:12:31.327Z,15.7
2016-08-22T05:13:31.324Z,15.74
2016-08-22T05:14:32.021Z,15.67
2016-08-22T05:15:31.997Z,15.75
2016-08-22T05:16:30.582Z,15.75
2016-08-22T05:17:31.273Z,15.74
2016-08-22T05:18:30.554Z,15.68
2016-08-22T05:19:31.977Z,15.76
2016-08-22T05:20:31.245Z,15.72
2016-08-22T05:21:31.242Z,15.72
2016-08-22T05:22:30.520Z,15.74
2016-08-22T05:23:30.513Z,15.68
2016-08-22T05:24:31.908Z,15.64
2016-08-22T05:25:31.199Z,15.85
2016-08-22T05:26:31.191Z,15.74
2016-08-22T05:27:30.466Z,15.74
2016-08-22T05:28:31.178Z,15.81
2016-08-22T05:29:30.448Z,15.74
2016-08-22T05:30:30.437Z,15.84
2016-08-22T05:31:30.429Z,15.76
2016-08-22T05:32:31.126Z,15.76
2016-08-22T05:33:30.413Z,15.79
2016-08-22T05:34:31.123Z,15.82
2016-08-22T05:35:31.142Z,15.93
2016-08-22T05:36:31.111Z,15.86
2016-08-22T05:37:31.799Z,15.94
2016-08-22T05:38:31.777Z,15.85
2016-08-22T05:39:31.065Z,15.92
2016-08-22T05:40:30.339Z,15.92
2016-08-22T05:41:31.034Z,15.92
2016-08-22T05:42:31.026Z,15.93
2016-08-22T05:43:31.013Z,16.03
2016-08-22T05:44:30.298Z,16
2016-08-22T05:45:30.290Z,15.96
2016-08-22T05:46:30.990Z,16
2016-08-22T05:47:31.686Z,16.07
2016-08-22T05:48:30.968Z,16.07
2016-08-22T05:49:30.247Z,16.06
2016-08-22T05:50:30.946Z,16.15
2016-08-22T05:51:31.656Z,16.14
2016-08-22T05:52:30.218Z,16.14
2016-08-22T05:53:30.212Z,16.14
2016-08-22T05:54:30.200Z,16.16
2016-08-22T05:55:31.611Z,16.15
2016-08-22T05:56:31.651Z,16.11
2016-08-22T05:57:30.187Z,16.2
2016-08-22T05:58:30.160Z,16.2
2016-08-22T05:59:30.861Z,16.18
2016-08-22T06:00:30.152Z,16.16
2016-08-22T06:01:30.132Z,16.2
2016-08-22T06:02:30.830Z,16.23
2016-08-22T06:03:31.532Z,16.18
2016-08-22T06:04:30.812Z,16.16
2016-08-22T06:05:30.100Z,16.18
2016-08-22T06:06:31.501Z,16.2
2016-08-22T06:07:30.081Z,16.25
2016-08-22T06:08:30.778Z,16.23
2016-08-22T06:09:30.766Z,16.27
2016-08-22T06:10:30.051Z,16.27
2016-08-22T06:11:30.746Z,16.27
2016-08-22T06:12:30.730Z,16.3
2016-08-22T06:13:30.732Z,16.33
2016-08-22T06:14:31.424Z,16.26
2016-08-22T06:15:30.001Z,16.3
2016-08-22T06:16:30.703Z,16.3
2016-08-22T06:17:29.981Z,16.34
2016-08-22T06:18:30.677Z,16.31
2016-08-22T06:19:31.374Z,16.35
2016-08-22T06:20:29.959Z,16.31
2016-08-22T06:21:30.652Z,16.34
2016-08-22T06:22:30.653Z,16.3
2016-08-22T06:23:29.923Z,16.26
2016-08-22T06:24:29.923Z,16.38
2016-08-22T06:25:31.332Z,16.4
2016-08-22T06:26:29.891Z,16.35
2016-08-22T06:27:29.896Z,16.33
2016-08-22T06:28:30.581Z,16.37
2016-08-22T06:29:30.572Z,16.42
2016-08-22T06:30:30.567Z,16.44
2016-08-22T06:31:31.268Z,16.45
2016-08-22T06:32:30.544Z,16.38
2016-08-22T06:33:29.828Z,16.4
2016-08-22T06:34:30.526Z,16.53
2016-08-22T06:35:29.807Z,16.42
2016-08-22T06:36:31.218Z,16.52
2016-08-22T06:37:30.502Z,16.45
2016-08-22T06:38:29.787Z,16.42
2016-08-22T06:39:30.486Z,16.42
2016-08-22T06:40:30.477Z,16.49
2016-08-22T06:41:31.166Z,16.5
2016-08-22T06:42:29.742Z,16.55
2016-08-22T06:43:30.440Z,16.6
2016-08-22T06:44:29.724Z,16.58
2016-08-22T06:45:30.419Z,16.56
2016-08-22T06:46:31.123Z,16.6
2016-08-22T06:47:29.720Z,16.67
2016-08-22T06:48:29.685Z,16.67
2016-08-22T06:49:29.678Z,16.73
2016-08-22T06:50:30.374Z,16.7
2016-08-22T06:51:31.075Z,16.73
2016-08-22T06:52:31.074Z,16.75
2016-08-22T06:53:29.636Z,16.71
2016-08-22T06:54:29.630Z,16.8
2016-08-22T06:55:30.327Z,16.74
2016-08-22T06:56:30.318Z,16.62
2016-08-22T06:57:30.308Z,16.81
2016-08-22T06:58:29.592Z,16.85
2016-08-22T06:59:30.291Z,16.6
2016-08-22T07:00:29.576Z,16.81
2016-08-22T07:01:30.271Z,16.86
2016-08-22T07:02:29.549Z,16.67
2016-08-22T07:03:30.259Z,16.67
2016-08-22T07:04:30.239Z,16.7
2016-08-22T07:05:30.948Z,16.86
2016-08-22T07:06:29.527Z,16.89
2016-08-22T07:07:29.506Z,16.67
2016-08-22T07:08:30.918Z,16.89
2016-08-22T07:09:30.196Z,16.83
2016-08-22T07:10:30.187Z,16.83
2016-08-22T07:11:30.185Z,16.71
2016-08-22T07:12:30.169Z,16.71
2016-08-22T07:13:29.452Z,16.81
2016-08-22T07:14:30.153Z,16.88
2016-08-22T07:15:29.439Z,16.77
2016-08-22T07:16:30.134Z,16.86
2016-08-22T07:17:30.847Z,16.75
2016-08-22T07:18:29.405Z,16.77
2016-08-22T07:19:30.115Z,16.75
2016-08-22T07:20:30.097Z,16.81
2016-08-22T07:21:29.384Z,16.78
2016-08-22T07:22:30.079Z,16.85
2016-08-22T07:23:29.360Z,16.88
2016-08-22T07:24:29.347Z,16.81
2016-08-22T07:25:29.355Z,16.9
2016-08-22T07:26:29.332Z,16.95
2016-08-22T07:27:29.334Z,16.99
2016-08-22T07:28:30.025Z,16.98
2016-08-22T07:29:30.012Z,16.98
2016-08-22T07:30:29.291Z,16.95
2016-08-22T07:31:30.702Z,16.98
2016-08-22T07:32:29.982Z,16.92
2016-08-22T07:33:29.976Z,17.04
2016-08-22T07:34:29.262Z,16.99
2016-08-22T07:35:29.251Z,16.93
2016-08-22T07:36:29.238Z,16.92
2016-08-22T07:37:29.232Z,16.9
2016-08-22T07:38:29.959Z,16.96
2016-08-22T07:39:29.217Z,16.95
2016-08-22T07:40:29.919Z,16.93
2016-08-22T07:41:30.612Z,16.96
2016-08-22T07:42:30.605Z,16.93
2016-08-22T07:43:29.884Z,16.99
2016-08-22T07:44:30.577Z,16.95
2016-08-22T07:45:29.861Z,16.98
2016-08-22T07:46:29.149Z,16.99
2016-08-22T07:47:29.135Z,17.03
2016-08-22T07:48:29.839Z,17.06
2016-08-22T07:49:29.830Z,17.06
2016-08-22T07:50:29.820Z,16.99
2016-08-22T07:51:29.306Z,17.07
2016-08-22T07:52:29.798Z,17
2016-08-22T07:53:30.512Z,17
2016-08-22T07:54:29.779Z,17.04
2016-08-22T07:55:29.065Z,17.07
2016-08-22T07:56:29.764Z,16.98
2016-08-22T07:57:29.058Z,17.06
2016-08-22T07:58:29.071Z,17
2016-08-22T07:59:30.458Z,17.11
2016-08-22T08:00:29.030Z,17.07
2016-08-22T08:01:29.723Z,17.1
2016-08-22T08:02:29.006Z,17.14
2016-08-22T08:03:29.011Z,17.1
2016-08-22T08:04:28.983Z,17.11
2016-08-22T08:05:30.393Z,17.17
2016-08-22T08:06:28.968Z,17.18
2016-08-22T08:07:28.965Z,17.2
2016-08-22T08:08:28.948Z,17.23
2016-08-22T08:09:29.651Z,17.29
2016-08-22T08:10:29.645Z,17.29
2016-08-22T08:11:28.923Z,17.33
2016-08-22T08:12:29.635Z,17.29
2016-08-22T08:13:29.614Z,17.32
2016-08-22T08:14:30.318Z,17.4
2016-08-22T08:15:30.296Z,17.38
2016-08-22T08:16:28.878Z,17.35
2016-08-22T08:17:30.285Z,17.41
2016-08-22T08:18:30.273Z,17.32
2016-08-22T08:19:30.264Z,17.38
2016-08-22T08:20:28.843Z,17.33
2016-08-22T08:21:29.542Z,17.29
2016-08-22T08:22:28.822Z,17.33
2016-08-22T08:23:28.821Z,17.38
2016-08-22T08:24:29.514Z,17.38
2016-08-22T08:25:29.512Z,17.38
2016-08-22T08:26:29.499Z,17.35
2016-08-22T08:27:29.501Z,17.26
2016-08-22T08:28:29.482Z,17.3
2016-08-22T08:29:29.471Z,17.3
2016-08-22T08:30:29.462Z,17.3
2016-08-22T08:31:28.750Z,17.3
2016-08-22T08:32:28.740Z,17.38
2016-08-22T08:33:30.144Z,17.38
2016-08-22T08:34:29.423Z,17.36
2016-08-22T08:35:29.419Z,17.35
2016-08-22T08:36:28.702Z,17.36
2016-08-22T08:37:28.697Z,17.35
2016-08-22T08:38:28.684Z,17.41
2016-08-22T08:39:29.382Z,17.33
2016-08-22T08:40:29.376Z,17.32
2016-08-22T08:41:29.363Z,17.4
2016-08-22T08:42:29.366Z,17.32
2016-08-22T08:43:29.347Z,17.38
2016-08-22T08:44:29.335Z,17.38
2016-08-22T08:45:29.330Z,17.36
2016-08-22T08:46:28.620Z,17.35
2016-08-22T08:47:30.026Z,17.53
2016-08-22T08:48:29.300Z,17.44
2016-08-22T08:49:28.586Z,17.44
2016-08-22T08:50:28.580Z,17.35
2016-08-22T08:51:29.988Z,17.44
2016-08-22T08:52:29.979Z,17.38
2016-08-22T08:53:29.257Z,17.5
2016-08-22T08:54:28.548Z,17.48
2016-08-22T08:55:29.242Z,17.55
2016-08-22T08:56:28.527Z,17.5
2016-08-22T08:57:29.232Z,17.44
2016-08-22T08:58:28.510Z,17.43
2016-08-22T08:59:28.502Z,17.44
2016-08-22T09:00:28.493Z,17.43
2016-08-22T09:01:29.188Z,17.46
2016-08-22T09:02:29.180Z,17.54
2016-08-22T09:03:29.171Z,17.55
2016-08-22T09:04:28.454Z,17.53
2016-08-22T09:05:29.150Z,17.54
2016-08-22T09:06:29.143Z,17.53
2016-08-22T09:07:28.428Z,17.48
2016-08-22T09:08:29.832Z,17.54
2016-08-22T09:09:29.114Z,17.5
2016-08-22T09:10:28.403Z,17.44
2016-08-22T09:11:28.413Z,17.36
2016-08-22T09:12:29.087Z,17.5
2016-08-22T09:13:29.081Z,17.4
2016-08-22T09:14:29.077Z,17.33
2016-08-22T09:15:28.356Z,17.36
2016-08-22T09:16:29.066Z,17.4
2016-08-22T09:17:29.755Z,17.32
2016-08-22T09:18:28.337Z,17.32
2016-08-22T09:19:28.318Z,17.32
2016-08-22T09:20:29.028Z,17.29
2016-08-22T09:21:29.730Z,17.28
2016-08-22T09:22:28.296Z,17.23
2016-08-22T09:23:29.005Z,17.22
2016-08-22T09:24:28.282Z,17.18
2016-08-22T09:25:28.269Z,17.14
2016-08-22T09:26:28.980Z,17.15
2016-08-22T09:27:29.667Z,17.13
2016-08-22T09:28:28.244Z,17.11
2016-08-22T09:29:28.940Z,17.06
2016-08-22T09:30:28.933Z,17.07
2016-08-22T09:31:28.921Z,17.11
2016-08-22T09:32:28.911Z,16.99
2016-08-22T09:33:28.901Z,17.08
2016-08-22T09:34:28.894Z,17.1
2016-08-22T09:35:28.895Z,17.08
2016-08-22T09:36:28.880Z,17.07
2016-08-22T09:37:28.160Z,16.99
2016-08-22T09:38:28.852Z,17.06
2016-08-22T09:39:28.160Z,17.08
2016-08-22T09:40:28.838Z,17.04
2016-08-22T09:41:28.119Z,16.98
2016-08-22T09:42:28.126Z,16.98
2016-08-22T09:43:28.105Z,16.98
2016-08-22T09:44:28.095Z,17
2016-08-22T09:45:28.796Z,17.03
2016-08-22T09:46:28.781Z,17.08
2016-08-22T09:47:29.480Z,16.99
2016-08-22T09:48:28.766Z,17.03
2016-08-22T09:49:29.471Z,17.03
2016-08-22T09:50:28.036Z,17.08
2016-08-22T09:51:28.940Z,16.99
2016-08-22T09:52:28.732Z,17.06
2016-08-22T09:53:28.724Z,16.98
2016-08-22T09:54:28.001Z,17.04
2016-08-22T09:55:28.698Z,17.1
2016-08-22T09:56:27.987Z,17.1
2016-08-22T09:57:27.976Z,16.92
2016-08-22T09:58:28.671Z,16.99
2016-08-22T09:59:29.365Z,16.93
2016-08-22T10:00:28.652Z,16.92
2016-08-22T10:01:28.645Z,16.92
2016-08-22T10:02:28.632Z,16.96
2016-08-22T10:03:27.923Z,16.92
2016-08-22T10:04:27.912Z,17.1
2016-08-22T10:05:27.897Z,17.03
2016-08-22T10:06:27.890Z,17.08
2016-08-22T10:07:28.604Z,17.04
2016-08-22T10:08:28.580Z,17.11
2016-08-22T10:09:27.863Z,17.08
2016-08-22T10:10:27.849Z,17.08
2016-08-22T10:11:27.839Z,17.07
2016-08-22T10:12:27.833Z,17.03
2016-08-22T10:13:28.530Z,17.07
2016-08-22T10:14:29.238Z,17.11
2016-08-22T10:15:28.522Z,17.07
2016-08-22T10:16:27.795Z,17.15
2016-08-22T10:17:27.784Z,17.22
2016-08-22T10:18:27.776Z,17.25
2016-08-22T10:19:27.770Z,17.22
2016-08-22T10:20:28.465Z,17.28
2016-08-22T10:21:27.755Z,17.28
2016-08-22T10:22:27.746Z,17.33
2016-08-22T10:23:28.439Z,17.32
2016-08-22T10:24:27.720Z,17.32
2016-08-22T10:25:28.423Z,17.36
2016-08-22T10:26:27.711Z,17.41
2016-08-22T10:27:27.702Z,17.36
2016-08-22T10:28:28.393Z,17.36
2016-08-22T10:29:27.680Z,17.47
2016-08-22T10:30:27.666Z,17.53
2016-08-22T10:31:27.653Z,17.46
2016-08-22T10:32:27.649Z,17.46
2016-08-22T10:33:27.638Z,17.43
2016-08-22T10:34:28.338Z,17.51
2016-08-22T10:35:29.035Z,17.59
2016-08-22T10:36:29.024Z,17.55
2016-08-22T10:37:27.602Z,17.54
2016-08-22T10:38:27.593Z,17.62
2016-08-22T10:39:28.296Z,17.55
2016-08-22T10:40:27.575Z,17.57
2016-08-22T10:41:27.573Z,17.62
2016-08-22T10:42:28.275Z,17.64
2016-08-22T10:43:28.961Z,17.74
2016-08-22T10:44:28.252Z,17.71
2016-08-22T10:45:27.532Z,17.78
2016-08-22T10:46:27.532Z,17.73
2016-08-22T10:47:27.515Z,17.78
2016-08-22T10:48:28.213Z,17.74
2016-08-22T10:49:27.496Z,17.82
2016-08-22T10:50:27.490Z,17.78
2016-08-22T10:51:28.187Z,17.78
2016-08-22T10:52:27.474Z,17.78
2016-08-22T10:53:28.170Z,17.87
2016-08-22T10:54:28.877Z,17.84
2016-08-22T10:55:27.447Z,17.87
2016-08-22T10:56:27.435Z,17.89
2016-08-22T10:57:27.427Z,17.84
2016-08-22T10:58:27.420Z,17.92
2016-08-22T10:59:28.823Z,17.97
2016-08-22T11:00:28.109Z,17.95
2016-08-22T11:01:27.395Z,17.88
2016-08-22T11:02:27.387Z,17.94
2016-08-22T11:03:28.082Z,17.91
2016-08-22T11:04:28.072Z,17.87
2016-08-22T11:05:27.363Z,17.87
2016-08-22T11:06:28.056Z,18
2016-08-22T11:07:27.343Z,17.91
2016-08-22T11:08:28.749Z,17.82
2016-08-22T11:09:27.323Z,17.84
2016-08-22T11:10:28.024Z,17.99
2016-08-22T11:11:28.013Z,17.85
2016-08-22T11:12:27.298Z,17.92
2016-08-22T11:13:27.301Z,17.89
2016-08-22T11:14:28.695Z,17.97
2016-08-22T11:15:27.271Z,17.97
2016-08-22T11:16:27.261Z,18.09
2016-08-22T11:17:27.256Z,18.07
2016-08-22T11:18:27.954Z,18.04
2016-08-22T11:19:27.948Z,18.13
2016-08-22T11:20:27.935Z,18.18
2016-08-22T11:21:27.228Z,18.12
2016-08-22T11:22:27.212Z,18.21
2016-08-22T11:23:28.619Z,18.22
2016-08-22T11:24:27.904Z,18.19
2016-08-22T11:25:27.193Z,18.19
2016-08-22T11:26:27.891Z,18.17
2016-08-22T11:27:28.582Z,18.18
2016-08-22T11:28:27.163Z,18.18
2016-08-22T11:29:28.568Z,18.15
2016-08-22T11:30:27.849Z,18.13
2016-08-22T11:31:27.845Z,18.21
2016-08-22T11:32:27.836Z,18.13
2016-08-22T11:33:27.825Z,18.17
2016-08-22T11:34:27.819Z,18.18
2016-08-22T11:35:27.103Z,18.19
2016-08-22T11:36:27.803Z,18.21
2016-08-22T11:37:27.797Z,18.27
2016-08-22T11:38:27.785Z,18.29
2016-08-22T11:39:27.775Z,18.29
2016-08-22T11:40:27.769Z,18.36
2016-08-22T11:41:27.051Z,18.27
2016-08-22T11:42:27.057Z,18.36
2016-08-22T11:43:27.744Z,18.36
2016-08-22T11:44:27.027Z,18.33
2016-08-22T11:45:27.723Z,18.39
2016-08-22T11:46:27.719Z,18.4
2016-08-22T11:47:27.716Z,18.47
2016-08-22T11:48:27.696Z,18.42
2016-08-22T11:49:28.429Z,18.37
2016-08-22T11:50:26.975Z,18.42
2016-08-22T11:51:28.611Z,18.44
2016-08-22T11:52:27.671Z,18.46
2016-08-22T11:53:27.662Z,18.47
2016-08-22T11:54:27.648Z,18.42
2016-08-22T11:55:26.939Z,18.43
2016-08-22T11:56:28.389Z,18.36
2016-08-22T11:57:26.916Z,18.34
2016-08-22T11:58:26.918Z,18.39
2016-08-22T11:59:28.320Z,18.33
2016-08-22T12:00:27.605Z,18.39
2016-08-22T12:01:27.597Z,18.34
2016-08-22T12:02:27.585Z,18.36
2016-08-22T12:03:27.570Z,18.37
2016-08-22T12:04:26.854Z,18.36
2016-08-22T12:05:27.555Z,18.37
2016-08-22T12:06:26.850Z,18.31
2016-08-22T12:07:27.537Z,18.28
2016-08-22T12:08:26.825Z,18.28
2016-08-22T12:09:26.812Z,18.28
2016-08-22T12:10:26.833Z,18.25
2016-08-22T12:11:26.849Z,18.27
2016-08-22T12:12:26.789Z,18.27
2016-08-22T12:13:26.780Z,18.25
2016-08-22T12:14:27.488Z,18.28
2016-08-22T12:15:28.175Z,18.36
2016-08-22T12:16:26.753Z,18.36
2016-08-22T12:17:26.750Z,18.37
2016-08-22T12:18:27.460Z,18.36
2016-08-22T12:19:27.439Z,18.36
2016-08-22T12:20:27.430Z,18.34
2016-08-22T12:21:26.711Z,18.27
2016-08-22T12:22:26.705Z,18.29
2016-08-22T12:23:27.418Z,18.25
2016-08-22T12:24:26.687Z,18.36
2016-08-22T12:25:26.682Z,18.36
2016-08-22T12:26:27.384Z,18.39
2016-08-22T12:27:27.374Z,18.44
2016-08-22T12:28:26.658Z,18.43
2016-08-22T12:29:27.363Z,18.47
2016-08-22T12:30:26.640Z,18.5
2016-08-22T12:31:27.361Z,18.55
2016-08-22T12:32:26.620Z,18.59
2016-08-22T12:33:26.613Z,18.47
2016-08-22T12:34:27.327Z,18.59
2016-08-22T12:35:26.595Z,18.57
2016-08-22T12:36:27.292Z,18.5
2016-08-22T12:37:26.582Z,18.49
2016-08-22T12:38:26.587Z,18.58
2016-08-22T12:39:27.269Z,18.55
2016-08-22T12:40:26.570Z,18.55
2016-08-22T12:41:27.262Z,18.57
2016-08-22T12:42:27.244Z,18.64
2016-08-22T12:43:27.241Z,18.64
2016-08-22T12:44:27.235Z,18.72
2016-08-22T12:45:26.521Z,18.64
2016-08-22T12:46:26.503Z,18.54
2016-08-22T12:47:27.222Z,18.62
2016-08-22T12:48:27.198Z,18.7
2016-08-22T12:49:27.895Z,18.65
2016-08-22T12:50:27.885Z,18.68
2016-08-22T12:51:27.173Z,18.74
2016-08-22T12:52:27.167Z,18.77
2016-08-22T12:53:26.448Z,18.82
2016-08-22T12:54:27.180Z,18.7
2016-08-22T12:55:26.437Z,18.76